Time;durP1;ratioP1;P1;durP2;ratioP2;P2;SDS_P1;SDS_P2;PMS_P1;PMS_P2;Temp;Humidity;BMP_temperature;BMP_pressure;BME280_temperature;BME280_humidity;BME280_pressure;Samples;Min_cycle;Max_cycle;Signal;HPM_P1;HPM_P2
2023/04/13 00:02:42;;;;;;;;;;;;;;;;;;137556;1273;22254;-82
2023/04/13 00:05:43;;;;;;;;;;;;;;;;;;137574;1273;22408;-82
2023/04/13 00:08:44;;;;;;;;;;;;;;;;;;137538;1273;22271;-82
2023/04/13 00:11:46;;;;;;;;;;;;;;;;;;137546;1273;23004;-83
2023/04/13 00:14:49;;;;;;;;;;;;;;;;;;137587;1270;22244;-83
2023/04/13 00:17:50;;;;;;;;;;;;;;;;;;137571;1273;22164;-82
2023/04/13 00:20:51;;;;;;;;;;;;;;;;;;137564;1273;22374;-82
2023/04/13 00:23:52;;;;;;;;;;;;;;;;;;137574;1273;22184;-82
2023/04/13 00:26:53;;;;;;;;;;;;;;;;;;137559;1273;22287;-81
2023/04/13 00:29:55;;;;;;;;;;;;;;;;;;137577;1273;22313;-83
2023/04/13 00:32:56;;;;;;;;;;;;;;;;;;137599;1273;22718;-82
2023/04/13 00:35:57;;;;;;;;;;;;;;;;;;137560;1273;22543;-82
2023/04/13 00:38:58;;;;;;;;;;;;;;;;;;137628;1273;22215;-82
2023/04/13 00:42:00;;;;;;;;;;;;;;;;;;137586;1273;22167;-83
2023/04/13 00:45:01;;;;;;;;;;;;;;;;;;137574;1273;22228;-82
2023/04/13 00:48:03;;;;;;;;;;;;;;;;;;137591;1273;22193;-83
2023/04/13 00:51:04;;;;;;;;;;;;;;;;;;137591;1273;22649;-82
2023/04/13 00:54:05;;;;;;;;;;;;;;;;;;137567;1273;22198;-83
2023/04/13 00:57:06;;;;;;;;;;;;;;;;;;137560;1273;22635;-83
2023/04/13 01:00:08;;;;;;;;;;;;;;;;;;137538;1273;22281;-82
2023/04/13 01:03:09;;;;;;;;;;;;;;;;;;137582;1273;22504;-82
2023/04/13 01:06:10;;;;;;;;;;;;;;;;;;137537;1273;22471;-82
2023/04/13 01:09:11;;;;;;;;;;;;;;;;;;137535;1273;22248;-82
2023/04/13 01:12:12;;;;;;;;;;;;;;;;;;137591;1273;22197;-81
2023/04/13 01:15:13;;;;;;;;;;;;;;;;;;137595;1273;22209;-82
2023/04/13 01:18:14;;;;;;;;;;;;;;;;;;137624;1273;22284;-82
2023/04/13 01:21:15;;;;;;;;;;;;;;;;;;137559;1273;22281;-83
2023/04/13 01:24:16;;;;;;;;;;;;;;;;;;137550;1273;22273;-81
2023/04/13 01:27:19;;;;;;;;;;;;;;;;;;137570;1273;22267;-81
2023/04/13 01:30:21;;;;;;;;;;;;;;;;;;137613;1273;22315;-82
2023/04/13 01:33:24;;;;;;;;;;;;;;;;;;137600;1273;22265;-82
2023/04/13 01:36:25;;;;;;;;;;;;;;;;;;137574;1273;22894;-82
2023/04/13 01:39:30;;;;;;;;;;;;;;;;;;137558;1273;22398;-82
2023/04/13 01:42:31;;;;;;;;;;;;;;;;;;137586;1273;22239;-82
2023/04/13 01:45:32;;;;;;;;;;;;;;;;;;137601;1273;22717;-82
2023/04/13 01:48:33;;;;;;;;;;;;;;;;;;137582;1270;22272;-82
2023/04/13 01:51:35;;;;;;;;;;;;;;;;;;137552;1273;22281;-83
2023/04/13 01:54:36;;;;;;;;;;;;;;;;;;137577;1273;22265;-82
2023/04/13 01:57:40;;;;;;;;;;;;;;;;;;137614;1273;22421;-83
2023/04/13 02:00:41;;;;;;;;;;;;;;;;;;137593;1273;22723;-83
2023/04/13 02:03:44;;;;;;;;;;;;;;;;;;137561;1273;22199;-82
2023/04/13 02:06:45;;;;;;;;;;;;;;;;;;137546;1273;22371;-82
2023/04/13 02:09:46;;;;;;;;;;;;;;;;;;137559;1273;22183;-83
2023/04/13 02:12:48;;;;;;;;;;;;;;;;;;137556;1273;22172;-82
2023/04/13 02:15:49;;;;;;;;;;;;;;;;;;137566;1273;22259;-82
2023/04/13 02:18:50;;;;;;;;;;;;;;;;;;137593;1273;22252;-81
2023/04/13 02:21:52;;;;;;;;;;;;;;;;;;137608;1273;22700;-81
2023/04/13 02:24:53;;;;;;;;;;;;;;;;;;137562;1273;22256;-83
2023/04/13 02:27:56;;;;;;;;;;;;;;;;;;137558;1270;22209;-83
2023/04/13 02:30:58;;;;;;;;;;;;;;;;;;137564;1273;22209;-82
2023/04/13 02:33:59;;;;;;;;;;;;;;;;;;137569;1273;22792;-83
2023/04/13 02:37:01;;;;;;;;;;;;;;;;;;137584;1273;22356;-83
2023/04/13 02:40:02;;;;;;;;;;;;;;;;;;137560;1273;22358;-82
2023/04/13 02:43:06;;;;;;;;;;;;;;;;;;137580;1273;22251;-82
2023/04/13 02:46:07;;;;;;;;;;;;;;;;;;137604;1273;22205;-82
2023/04/13 02:49:09;;;;;;;;;;;;;;;;;;137576;1273;22273;-83
2023/04/13 02:52:10;;;;;;;;;;;;;;;;;;137570;1273;22285;-82
2023/04/13 02:55:11;;;;;;;;;;;;;;;;;;137573;1273;22208;-83
2023/04/13 02:58:16;;;;;;;;;;;;;;;;;;137568;1273;22265;-83
2023/04/13 03:01:17;;;;;;;;;;;;;;;;;;137602;1273;22244;-83
2023/04/13 03:04:18;;;;;;;;;;;;;;;;;;137594;1273;22318;-82
2023/04/13 03:07:19;;;;;;;;;;;;;;;;;;137536;1273;22359;-83
2023/04/13 03:10:20;;;;;;;;;;;;;;;;;;137575;1273;22294;-82
2023/04/13 03:13:21;;;;;;;;;;;;;;;;;;137570;1273;22388;-82
2023/04/13 03:16:22;;;;;;;;;;;;;;;;;;137603;1273;22270;-82
2023/04/13 03:19:24;;;;;;;;;;;;;;;;;;137629;1273;22338;-80
2023/04/13 03:22:29;;;;;;;;;;;;;;;;;;137601;1270;22301;-82
2023/04/13 03:25:30;;;;;;;;;;;;;;;;;;137591;1273;22709;-83
2023/04/13 03:28:31;;;;;;;;;;;;;;;;;;137623;1273;22244;-83
2023/04/13 03:31:32;;;;;;;;;;;;;;;;;;137564;1273;22356;-83
2023/04/13 03:34:33;;;;;;;;;;;;;;;;;;137591;1273;22298;-83
2023/04/13 03:37:41;;;;;;;;;;;;;;;;;;137565;1273;22361;-83
2023/04/13 03:40:42;;;;;;;;;;;;;;;;;;137556;1273;22266;-80
2023/04/13 03:43:43;;;;;;;;;;;;;;;;;;137586;1273;22685;-82
2023/04/13 03:46:44;;;;;;;;;;;;;;;;;;137539;1273;22190;-82
2023/04/13 03:49:45;;;;;;;;;;;;;;;;;;137548;1273;22824;-82
2023/04/13 03:52:47;;;;;;;;;;;;;;;;;;137503;1273;22669;-82
2023/04/13 03:55:48;;;;;;;;;;;;;;;;;;137497;1273;22274;-82
2023/04/13 03:58:49;;;;;;;;;;;;;;;;;;137507;1273;22267;-82
2023/04/13 04:01:50;;;;;;;;;;;;;;;;;;137469;1273;22194;-82
2023/04/13 04:04:51;;;;;;;;;;;;;;;;;;137530;1273;22315;-83
2023/04/13 04:07:52;;;;;;;;;;;;;;;;;;137528;1273;22401;-83
2023/04/13 04:10:53;;;;;;;;;;;;;;;;;;137500;1273;22291;-82
2023/04/13 04:13:54;;;;;;;;;;;;;;;;;;137524;1273;22650;-84
2023/04/13 04:16:55;;;;;;;;;;;;;;;;;;137523;1273;22238;-83
2023/04/13 04:19:56;;;;;;;;;;;;;;;;;;137503;1273;22274;-83
2023/04/13 04:23:00;;;;;;;;;;;;;;;;;;137484;1273;22221;-82
2023/04/13 04:26:01;;;;;;;;;;;;;;;;;;137470;1273;22267;-82
2023/04/13 04:29:03;;;;;;;;;;;;;;;;;;137538;1273;22263;-83
2023/04/13 04:32:04;;;;;;;;;;;;;;;;;;137456;1273;22264;-82
2023/04/13 04:35:06;;;;;;;;;;;;;;;;;;137488;1273;22345;-82
2023/04/13 04:38:08;;;;;;;;;;;;;;;;;;137481;1273;22366;-84
2023/04/13 04:41:09;;;;;;;;;;;;;;;;;;137500;1273;22157;-81
2023/04/13 04:44:10;;;;;;;;;;;;;;;;;;137539;1273;22277;-82
2023/04/13 04:47:12;;;;;;;;;;;;;;;;;;137516;1273;22243;-84
2023/04/13 04:50:13;;;;;;;;;;;;;;;;;;137526;1273;22257;-83
2023/04/13 04:53:14;;;;;;;;;;;;;;;;;;137524;1273;22197;-82
2023/04/13 04:56:15;;;;;;;;;;;;;;;;;;137516;1273;22355;-81
2023/04/13 04:59:16;;;;;;;;;;;;;;;;;;137506;1273;22291;-83
2023/04/13 05:02:19;;;;;;;;;;;;;;;;;;137482;1273;22194;-83
2023/04/13 05:05:21;;;;;;;;;;;;;;;;;;137491;1273;22171;-81
2023/04/13 05:08:22;;;;;;;;;;;;;;;;;;137518;1273;22263;-83
2023/04/13 05:11:23;;;;;;;;;;;;;;;;;;137449;1273;22848;-82
2023/04/13 05:14:24;;;;;;;;;;;;;;;;;;137482;1273;22992;-82
2023/04/13 05:17:25;;;;;;;;;;;;;;;;;;137470;1273;22748;-84
2023/04/13 05:20:26;;;;;;;;;;;;;;;;;;137475;1273;22287;-83
2023/04/13 05:23:27;;;;;;;;;;;;;;;;;;137477;1273;22599;-82
2023/04/13 05:26:29;;;;;;;;;;;;;;;;;;137505;1273;22286;-82
2023/04/13 05:29:32;;;;;;;;;;;;;;;;;;137544;1273;22154;-82
2023/04/13 05:32:33;;;;;;;;;;;;;;;;;;137511;1269;22513;-83
2023/04/13 05:35:36;;;;;;;;;;;;;;;;;;137496;1273;22471;-83
2023/04/13 05:38:37;;;;;;;;;;;;;;;;;;137510;1273;22617;-83
2023/04/13 05:41:38;;;;;;;;;;;;;;;;;;137495;1273;22154;-84
2023/04/13 05:44:39;;;;;;;;;;;;;;;;;;137480;1273;22209;-82
2023/04/13 05:47:40;;;;;;;;;;;;;;;;;;137486;1273;22255;-81
2023/04/13 05:50:42;;;;;;;;;;;;;;;;;;137479;1262;22167;-83
2023/04/13 05:53:44;;;;;;;;;;;;;;;;;;137466;1273;22671;-83
2023/04/13 05:56:46;;;;;;;;;;;;;;;;;;137494;1273;22878;-82
2023/04/13 05:59:47;;;;;;;;;;;;;;;;;;137473;1273;22252;-82
2023/04/13 06:02:49;;;;;;;;;;;;;;;;;;137403;1273;22320;-80
2023/04/13 06:05:51;;;;;;;;;;;;;;;;;;137481;1273;22342;-79
2023/04/13 06:08:52;;;;;;;;;;;;;;;;;;137446;1273;22263;-81
2023/04/13 06:11:54;;;;;;;;;;;;;;;;;;137420;1273;22279;-82
2023/04/13 06:14:55;;;;;;;;;;;;;;;;;;137425;1273;22188;-83
2023/04/13 06:17:56;;;;;;;;;;;;;;;;;;137504;1273;22297;-83
2023/04/13 06:20:57;;;;;;;;;;;;;;;;;;137496;1273;22176;-82
2023/04/13 06:23:58;;;;;;;;;;;;;;;;;;137482;1270;22263;-81
2023/04/13 06:26:59;;;;;;;;;;;;;;;;;;137473;1273;22629;-82
2023/04/13 06:30:01;;;;;;;;;;;;;;;;;;137441;1273;22289;-81
2023/04/13 06:33:03;;;;;;;;;;;;;;;;;;137439;1273;22175;-82
2023/04/13 06:36:04;;;;;;;;;;;;;;;;;;137444;1273;22540;-83
2023/04/13 06:39:05;;;;;;;;;;;;;;;;;;137461;1273;22213;-82
2023/04/13 06:42:07;;;;;;;;;;;;;;;;;;137449;1273;22778;-81
2023/04/13 06:45:08;;;;;;;;;;;;;;;;;;137446;1273;22166;-82
2023/04/13 06:48:10;;;;;;;;;;;;;;;;;;137509;1273;22271;-82
2023/04/13 06:51:11;;;;;;;;;;;;;;;;;;137491;1273;22177;-84
2023/04/13 06:54:12;;;;;;;;;;;;;;;;;;137539;1273;22531;-81
2023/04/13 06:57:13;;;;;;;;;;;;;;;;;;137571;1273;22819;-85
2023/04/13 07:00:18;;;;;;;;;;;;;;;;;;137506;1271;22519;-80
2023/04/13 07:03:19;;;;;;;;;;;;;;;;;;137505;1272;22167;-82
2023/04/13 07:06:20;;;;;;;;;;;;;;;;;;137529;1272;22874;-80
2023/04/13 07:09:21;;;;;;;;;;;;;;;;;;137342;1273;234616;-82
2023/04/13 07:12:22;;;;;;;;;;;;;;;;;;137518;1273;22357;-83
2023/04/13 07:15:23;;;;;;;;;;;;;;;;;;137520;1273;22319;-81
2023/04/13 07:18:25;;;;;;;;;;;;;;;;;;137522;1273;23026;-82
2023/04/13 07:21:26;;;;;;;;;;;;;;;;;;137517;1272;22195;-81
2023/04/13 07:24:27;;;;;;;;;;;;;;;;;;137535;1273;22295;-82
2023/04/13 07:27:29;;;;;;;;;;;;;;;;;;137576;1273;23108;-82
2023/04/13 07:30:30;;;;;;;;;;;;;;;;;;137540;1268;22288;-84
2023/04/13 07:33:35;;;;;;;;;;;;;;;;;;137557;1273;22280;-81
2023/04/13 07:36:36;;;;;;;;;;;;;;;;;;137529;1272;22438;-83
2023/04/13 07:39:37;;;;;;;;;;;;;;;;;;137490;1273;22252;-82
2023/04/13 07:42:38;;;;;;;;;;;;;;;;;;137515;1273;22225;-82
2023/04/13 07:45:39;;;;;;;;;;;;;;;;;;137521;1273;22583;-83
2023/04/13 07:48:41;;;;;;;;;;;;;;;;;;137513;1273;22811;-82
2023/04/13 07:51:42;;;;;;;;;;;;;;;;;;137559;1273;22205;-82
2023/04/13 07:54:43;;;;;;;;;;;;;;;;;;137533;1273;22181;-84
2023/04/13 07:57:44;;;;;;;;;;;;;;;;;;137524;1273;22640;-83
2023/04/13 08:00:46;;;;;;;;;;;;;;;;;;137475;1273;22180;-83
2023/04/13 08:03:47;;;;;;;;;;;;;;;;;;137577;1273;22302;-83
2023/04/13 08:06:48;;;;;;;;;;;;;;;;;;137583;1273;22394;-83
2023/04/13 08:09:51;;;;;;;;;;;;;;;;;;137606;1273;22295;-83
2023/04/13 08:12:52;;;;;;;;;;;;;;;;;;137697;1273;22205;-81
2023/04/13 08:15:55;;;;;;;;;;;;;;;;;;137545;1273;22302;-82
2023/04/13 08:18:57;;;;;;;;;;;;;;;;;;137588;1273;22666;-82
2023/04/13 08:21:58;;;;;;;;;;;;;;;;;;137527;1273;22209;-82
2023/04/13 08:24:59;;;;;;;;;;;;;;;;;;137504;1273;22327;-83
2023/04/13 08:28:01;;;;;;;;;;;;;;;;;;137498;1273;22284;-83
2023/04/13 08:31:02;;;;;;;;;;;;;;;;;;137544;1273;22221;-83
2023/04/13 08:34:03;;;;;;;;;;;;;;;;;;137531;1273;22311;-82
2023/04/13 08:37:04;;;;;;;;;;;;;;;;;;137546;1273;22360;-82
2023/04/13 08:40:06;;;;;;;;;;;;;;;;;;137554;1273;22194;-84
2023/04/13 08:43:07;;;;;;;;;;;;;;;;;;137525;1273;22281;-82
2023/04/13 08:46:08;;;;;;;;;;;;;;;;;;137473;1273;22190;-82
2023/04/13 08:49:10;;;;;;;;;;;;;;;;;;137479;1273;22685;-84
2023/04/13 08:52:11;;;;;;;;;;;;;;;;;;137538;1273;22805;-83
2023/04/13 08:55:14;;;;;;;;;;;;;;;;;;137537;1273;22618;-82
2023/04/13 08:58:18;;;;;;;;;;;;;;;;;;137543;1273;22264;-82
2023/04/13 09:01:19;;;;;;;;;;;;;;;;;;137437;1263;22149;-81
2023/04/13 09:04:21;;;;;;;;;;;;;;;;;;137521;1273;22159;-82
2023/04/13 09:07:25;;;;;;;;;;;;;;;;;;137486;1273;22354;-81
2023/04/13 09:10:29;;;;;;;;;;;;;;;;;;137488;1273;22264;-82
2023/04/13 09:13:30;;;;;;;;;;;;;;;;;;137514;1273;22362;-81
2023/04/13 09:16:31;;;;;;;;;;;;;;;;;;137541;1273;22286;-82
2023/04/13 09:19:32;;;;;;;;;;;;;;;;;;137648;1273;22185;-83
2023/04/13 09:22:34;;;;;;;;;;;;;;;;;;137640;1273;22251;-82
2023/04/13 09:25:35;;;;;;;;;;;;;;;;;;137590;1273;22278;-84
2023/04/13 09:28:36;;;;;;;;;;;;;;;;;;137639;1271;22189;-83
2023/04/13 09:31:38;;;;;;;;;;;;;;;;;;137582;1273;22493;-82
2023/04/13 09:34:39;;;;;;;;;;;;;;;;;;137615;1273;22248;-84
2023/04/13 09:37:41;;;;;;;;;;;;;;;;;;137521;1273;22348;-82
2023/04/13 09:40:42;;;;;;;;;;;;;;;;;;137561;1270;22166;-82
2023/04/13 09:43:43;;;;;;;;;;;;;;;;;;137549;1273;22274;-84
2023/04/13 09:46:45;;;;;;;;;;;;;;;;;;137554;1273;22429;-81
2023/04/13 09:49:46;;;;;;;;;;;;;;;;;;137552;1273;23192;-86
2023/04/13 09:52:47;;;;;;;;;;;;;;;;;;137510;1273;22293;-83
2023/04/13 09:55:48;;;;;;;;;;;;;;;;;;137527;1273;22255;-83
2023/04/13 09:58:50;;;;;;;;;;;;;;;;;;137534;1268;22291;-83
2023/04/13 10:01:52;;;;;;;;;;;;;;;;;;137524;1273;22184;-82
2023/04/13 10:04:53;;;;;;;;;;;;;;;;;;137477;1273;22779;-84
2023/04/13 10:07:55;;;;;;;;;;;;;;;;;;137507;1273;22366;-82
2023/04/13 10:10:56;;;;;;;;;;;;;;;;;;137515;1273;22475;-80
2023/04/13 10:13:57;;;;;;;;;;;;;;;;;;137555;1273;22313;-83
2023/04/13 10:16:58;;;;;;;;;;;;;;;;;;137554;1273;23078;-84
2023/04/13 10:19:59;;;;;;;;;;;;;;;;;;137563;1258;22186;-83
2023/04/13 10:23:00;;;;;;;;;;;;;;;;;;137519;1273;22644;-84
2023/04/13 10:26:03;;;;;;;;;;;;;;;;;;137502;1273;22773;-82
2023/04/13 10:29:04;;;;;;;;;;;;;;;;;;137565;1273;22302;-83
2023/04/13 10:32:06;;;;;;;;;;;;;;;;;;137573;1273;22733;-81
2023/04/13 10:35:07;;;;;;;;;;;;;;;;;;137525;1270;22220;-83
2023/04/13 10:38:09;;;;;;;;;;;;;;;;;;137571;1273;22375;-83
2023/04/13 10:41:10;;;;;;;;;;;;;;;;;;137619;1273;22321;-84
2023/04/13 10:44:11;;;;;;;;;;;;;;;;;;137582;1273;22325;-81
2023/04/13 10:47:12;;;;;;;;;;;;;;;;;;137602;1273;22214;-82
2023/04/13 10:50:14;;;;;;;;;;;;;;;;;;137597;1273;22174;-83
2023/04/13 10:53:15;;;;;;;;;;;;;;;;;;137600;1273;22373;-82
2023/04/13 10:56:16;;;;;;;;;;;;;;;;;;137541;1273;22189;-83
2023/04/13 10:59:18;;;;;;;;;;;;;;;;;;137570;1273;22176;-83
2023/04/13 11:02:19;;;;;;;;;;;;;;;;;;137560;1273;22184;-85
2023/04/13 11:05:21;;;;;;;;;;;;;;;;;;137433;1273;22275;-82
2023/04/13 11:08:23;;;;;;;;;;;;;;;;;;137560;1273;22265;-83
2023/04/13 11:11:24;;;;;;;;;;;;;;;;;;137592;1273;22311;-83
2023/04/13 11:14:27;;;;;;;;;;;;;;;;;;137573;1273;22261;-74
2023/04/13 11:17:28;;;;;;;;;;;;;;;;;;137541;1273;22720;-80
2023/04/13 11:20:29;;;;;;;;;;;;;;;;;;137553;1273;22644;-84
2023/04/13 11:23:33;;;;;;;;;;;;;;;;;;137484;1273;22943;-81
2023/04/13 11:26:35;;;;;;;;;;;;;;;;;;137511;1273;22239;-84
2023/04/13 11:29:36;;;;;;;;;;;;;;;;;;137582;1273;22192;-84
2023/04/13 11:32:37;;;;;;;;;;;;;;;;;;137547;1273;22272;-81
2023/04/13 11:35:38;;;;;;;;;;;;;;;;;;137531;1273;22390;-83
2023/04/13 11:38:40;;;;;;;;;;;;;;;;;;137482;1273;22714;-82
2023/04/13 11:41:41;;;;;;;;;;;;;;;;;;137552;1273;22729;-83
2023/04/13 11:44:45;;;;;;;;;;;;;;;;;;137563;1262;22172;-83
2023/04/13 11:47:49;;;;;;;;;;;;;;;;;;137633;1273;22196;-83
2023/04/13 11:50:50;;;;;;;;;;;;;;;;;;137630;1273;22265;-84
2023/04/13 11:53:51;;;;;;;;;;;;;;;;;;137576;1273;22607;-83
2023/04/13 11:56:53;;;;;;;;;;;;;;;;;;137587;1273;22331;-83
2023/04/13 11:59:54;;;;;;;;;;;;;;;;;;137591;1273;22257;-82
2023/04/13 12:02:55;;;;;;;;;;;;;;;;;;137525;1273;22262;-83
2023/04/13 12:05:56;;;;;;;;;;;;;;;;;;137566;1273;22368;-82
2023/04/13 12:08:57;;;;;;;;;;;;;;;;;;137526;1273;22184;-82
2023/04/13 12:11:58;;;;;;;;;;;;;;;;;;137519;1273;22177;-82
2023/04/13 12:14:59;;;;;;;;;;;;;;;;;;137502;1273;23059;-82
2023/04/13 12:18:00;;;;;;;;;;;;;;;;;;137487;1273;22938;-81
2023/04/13 12:21:01;;;;;;;;;;;;;;;;;;137510;1273;22274;-82
2023/04/13 12:24:02;;;;;;;;;;;;;;;;;;137463;1273;22275;-81
2023/04/13 12:27:03;;;;;;;;;;;;;;;;;;137441;1273;22795;-80
2023/04/13 12:30:05;;;;;;;;;;;;;;;;;;137475;1273;22431;-81
2023/04/13 12:33:06;;;;;;;;;;;;;;;;;;137448;1273;22160;-83
2023/04/13 12:36:10;;;;;;;;;;;;;;;;;;137551;1270;23147;-81
2023/04/13 12:39:11;;;;;;;;;;;;;;;;;;137519;1273;22178;-80
2023/04/13 12:42:12;;;;;;;;;;;;;;;;;;137524;1273;22249;-81
2023/04/13 12:45:13;;;;;;;;;;;;;;;;;;137591;1273;22325;-81
2023/04/13 12:48:14;;;;;;;;;;;;;;;;;;137554;1273;22167;-82
2023/04/13 12:51:15;;;;;;;;;;;;;;;;;;137548;1273;22953;-84
2023/04/13 12:54:16;;;;;;;;;;;;;;;;;;137372;1273;22430;-83
2023/04/13 12:57:18;;;;;;;;;;;;;;;;;;137531;1273;22216;-81
2023/04/13 13:00:19;;;;;;;;;;;;;;;;;;137565;1273;22278;-80
2023/04/13 13:03:20;;;;;;;;;;;;;;;;;;137558;1273;22199;-82
2023/04/13 13:06:21;;;;;;;;;;;;;;;;;;137553;1273;22336;-80
2023/04/13 13:09:22;;;;;;;;;;;;;;;;;;137554;1273;22311;-82
2023/04/13 13:12:28;;;;;;;;;;;;;;;;;;137563;1273;22709;-82
2023/04/13 13:15:29;;;;;;;;;;;;;;;;;;137539;1273;22222;-83
2023/04/13 13:18:30;;;;;;;;;;;;;;;;;;137570;1273;22165;-79
2023/04/13 13:21:31;;;;;;;;;;;;;;;;;;137537;1273;22175;-81
2023/04/13 13:24:32;;;;;;;;;;;;;;;;;;137540;1271;22188;-82
2023/04/13 13:27:34;;;;;;;;;;;;;;;;;;137504;1273;22279;-82
2023/04/13 13:30:35;;;;;;;;;;;;;;;;;;137471;1273;22312;-81
2023/04/13 13:33:36;;;;;;;;;;;;;;;;;;137466;1273;22159;-80
2023/04/13 13:36:37;;;;;;;;;;;;;;;;;;137540;1270;22378;-81
2023/04/13 13:39:38;;;;;;;;;;;;;;;;;;137554;1273;22166;-81
2023/04/13 13:42:40;;;;;;;;;;;;;;;;;;137512;1273;22620;-82
2023/04/13 13:45:41;;;;;;;;;;;;;;;;;;137591;1273;22194;-81
2023/04/13 13:48:42;;;;;;;;;;;;;;;;;;137583;1273;22254;-82
2023/04/13 13:51:43;;;;;;;;;;;;;;;;;;137589;1273;22646;-81
2023/04/13 13:54:44;;;;;;;;;;;;;;;;;;137597;1273;22286;-82
2023/04/13 13:57:45;;;;;;;;;;;;;;;;;;137622;1273;22182;-83
2023/04/13 14:00:46;;;;;;;;;;;;;;;;;;137601;1273;22270;-82
2023/04/13 14:03:47;;;;;;;;;;;;;;;;;;137628;1273;22286;-82
2023/04/13 14:06:48;;;;;;;;;;;;;;;;;;137598;1273;22369;-81
2023/04/13 14:09:49;;;;;;;;;;;;;;;;;;137633;1273;22155;-82
2023/04/13 14:12:51;;;;;;;;;;;;;;;;;;137551;1273;22697;-81
2023/04/13 14:15:52;;;;;;;;;;;;;;;;;;137599;1273;22635;-81
2023/04/13 14:18:53;;;;;;;;;;;;;;;;;;137568;1273;22186;-81
2023/04/13 14:21:55;;;;;;;;;;;;;;;;;;137575;1273;22869;-81
2023/04/13 14:24:56;;;;;;;;;;;;;;;;;;137589;1273;22249;-80
2023/04/13 14:27:57;;;;;;;;;;;;;;;;;;137586;1273;22268;-81
2023/04/13 14:30:58;;;;;;;;;;;;;;;;;;137565;1273;22194;-82
2023/04/13 14:33:59;;;;;;;;;;;;;;;;;;137598;1273;22348;-82
2023/04/13 14:37:00;;;;;;;;;;;;;;;;;;137556;1273;22376;-81
2023/04/13 14:40:07;;;;;;;;;;;;;;;;;;137608;1273;22202;-81
2023/04/13 14:43:08;;;;;;;;;;;;;;;;;;137654;1273;22227;-81
2023/04/13 14:46:09;;;;;;;;;;;;;;;;;;137629;1273;22180;-82
2023/04/13 14:49:11;;;;;;;;;;;;;;;;;;137637;1273;22197;-81
2023/04/13 14:52:13;;;;;;;;;;;;;;;;;;137639;1273;22249;-82
2023/04/13 14:55:14;;;;;;;;;;;;;;;;;;137675;1273;22276;-81
2023/04/13 14:58:18;;;;;;;;;;;;;;;;;;137675;1273;22259;-81
2023/04/13 15:01:20;;;;;;;;;;;;;;;;;;137631;1273;22165;-82
2023/04/13 15:04:24;;;;;;;;;;;;;;;;;;137711;1273;22302;-82
2023/04/13 15:07:28;;;;;;;;;;;;;;;;;;137672;1273;22480;-82
2023/04/13 15:10:29;;;;;;;;;;;;;;;;;;137661;1273;22262;-81
2023/04/13 15:13:33;;;;;;;;;;;;;;;;;;137594;1271;22367;-81
2023/04/13 15:16:34;;;;;;;;;;;;;;;;;;137684;1273;22268;-82
2023/04/13 15:19:35;;;;;;;;;;;;;;;;;;137690;1273;22324;-82
2023/04/13 15:22:36;;;;;;;;;;;;;;;;;;137702;1273;22666;-82
2023/04/13 15:25:37;;;;;;;;;;;;;;;;;;137615;1273;22166;-82
2023/04/13 15:28:39;;;;;;;;;;;;;;;;;;137615;1273;22300;-82
2023/04/13 15:31:40;;;;;;;;;;;;;;;;;;137612;1273;22260;-80
2023/04/13 15:34:41;;;;;;;;;;;;;;;;;;137621;1273;23140;-80
2023/04/13 15:37:42;;;;;;;;;;;;;;;;;;137637;1273;22365;-79
2023/04/13 15:40:43;;;;;;;;;;;;;;;;;;137610;1273;22331;-83
2023/04/13 15:43:47;;;;;;;;;;;;;;;;;;137626;1273;22273;-82
2023/04/13 15:46:48;;;;;;;;;;;;;;;;;;137615;1269;22706;-82
2023/04/13 15:49:49;;;;;;;;;;;;;;;;;;137625;1273;22395;-82
2023/04/13 15:52:50;;;;;;;;;;;;;;;;;;137612;1273;22273;-83
2023/04/13 15:55:52;;;;;;;;;;;;;;;;;;137629;1273;22381;-81
2023/04/13 15:58:53;;;;;;;;;;;;;;;;;;137606;1273;22278;-82
2023/04/13 16:01:54;;;;;;;;;;;;;;;;;;137599;1273;22334;-82
2023/04/13 16:04:55;;;;;;;;;;;;;;;;;;137578;1273;22195;-79
2023/04/13 16:07:56;;;;;;;;;;;;;;;;;;137547;1273;22793;-81
2023/04/13 16:10:58;;;;;;;;;;;;;;;;;;137578;1273;22202;-81
2023/04/13 16:14:05;;;;;;;;;;;;;;;;;;137595;1273;22730;-81
2023/04/13 16:17:06;;;;;;;;;;;;;;;;;;137568;1273;22316;-81
2023/04/13 16:20:16;;;;;;;;;;;;;;;;;;137551;1273;22200;-82
2023/04/13 16:23:18;;;;;;;;;;;;;;;;;;137601;1273;22266;-82
2023/04/13 16:26:19;;;;;;;;;;;;;;;;;;137607;1273;22249;-81
2023/04/13 16:29:20;;;;;;;;;;;;;;;;;;137599;1273;22153;-82
2023/04/13 16:32:21;;;;;;;;;;;;;;;;;;137617;1273;22329;-82
2023/04/13 16:35:23;;;;;;;;;;;;;;;;;;137633;1273;22793;-82
2023/04/13 16:38:24;;;;;;;;;;;;;;;;;;137656;1271;22303;-83
2023/04/13 16:41:26;;;;;;;;;;;;;;;;;;137664;1273;22240;-84
2023/04/13 16:44:27;;;;;;;;;;;;;;;;;;137635;1273;22264;-83
2023/04/13 16:47:28;;;;;;;;;;;;;;;;;;137663;1273;22196;-83
2023/04/13 16:50:29;;;;;;;;;;;;;;;;;;137654;1273;22181;-83
2023/04/13 16:53:31;;;;;;;;;;;;;;;;;;137656;1273;22282;-85
2023/04/13 16:56:33;;;;;;;;;;;;;;;;;;137695;1270;22246;-84
2023/04/13 16:59:34;;;;;;;;;;;;;;;;;;137687;1273;22292;-84
2023/04/13 17:02:35;;;;;;;;;;;;;;;;;;137656;1273;22689;-83
2023/04/13 17:05:36;;;;;;;;;;;;;;;;;;137659;1273;22422;-87
2023/04/13 17:08:37;;;;;;;;;;;;;;;;;;137672;1273;22561;-81
2023/04/13 17:11:38;;;;;;;;;;;;;;;;;;137729;1273;22280;-84
2023/04/13 17:14:39;;;;;;;;;;;;;;;;;;137589;1273;22362;-83
2023/04/13 17:17:41;;;;;;;;;;;;;;;;;;137593;1273;22273;-83
2023/04/13 17:20:42;;;;;;;;;;;;;;;;;;137624;1273;22338;-83
2023/04/13 17:23:43;;;;;;;;;;;;;;;;;;137608;1273;22906;-84
2023/04/13 17:26:44;;;;;;;;;;;;;;;;;;137555;1273;22299;-84
2023/04/13 17:29:46;;;;;;;;;;;;;;;;;;137558;1273;22279;-83
2023/04/13 17:32:47;;;;;;;;;;;;;;;;;;137653;1268;22443;-83
2023/04/13 17:35:49;;;;;;;;;;;;;;;;;;137647;1273;22439;-83
2023/04/13 17:38:52;;;;;;;;;;;;;;;;;;137641;1273;22733;-83
2023/04/13 17:41:53;;;;;;;;;;;;;;;;;;137620;1273;22742;-83
2023/04/13 17:44:54;;;;;;;;;;;;;;;;;;137580;1273;22669;-84
2023/04/13 17:47:56;;;;;;;;;;;;;;;;;;137603;1273;22776;-83
2023/04/13 17:50:57;;;;;;;;;;;;;;;;;;137604;1273;22287;-85
2023/04/13 17:53:58;;;;;;;;;;;;;;;;;;137584;1271;22210;-84
2023/04/13 17:56:59;;;;;;;;;;;;;;;;;;137652;1273;22181;-85
2023/04/13 18:00:00;;;;;;;;;;;;;;;;;;137650;1262;22178;-85
2023/04/13 18:03:02;;;;;;;;;;;;;;;;;;137555;1273;22197;-82
2023/04/13 18:06:03;;;;;;;;;;;;;;;;;;137558;1273;22363;-83
2023/04/13 18:09:04;;;;;;;;;;;;;;;;;;137575;1273;22302;-83
2023/04/13 18:12:05;;;;;;;;;;;;;;;;;;137655;1273;22188;-83
2023/04/13 18:15:06;;;;;;;;;;;;;;;;;;137602;1273;22313;-81
2023/04/13 18:18:07;;;;;;;;;;;;;;;;;;137653;1273;22797;-80
2023/04/13 18:21:09;;;;;;;;;;;;;;;;;;137637;1273;22372;-83
2023/04/13 18:24:10;;;;;;;;;;;;;;;;;;137648;1273;22299;-83
2023/04/13 18:27:11;;;;;;;;;;;;;;;;;;137624;1273;22182;-84
2023/04/13 18:30:12;;;;;;;;;;;;;;;;;;137622;1273;22181;-84
2023/04/13 18:33:14;;;;;;;;;;;;;;;;;;137675;1270;22339;-83
2023/04/13 18:36:15;;;;;;;;;;;;;;;;;;137669;1273;22387;-83
2023/04/13 18:39:18;;;;;;;;;;;;;;;;;;137633;1273;22278;-83
2023/04/13 18:42:19;;;;;;;;;;;;;;;;;;137605;1273;22262;-83
2023/04/13 18:45:20;;;;;;;;;;;;;;;;;;137597;1273;22314;-84
2023/04/13 18:48:21;;;;;;;;;;;;;;;;;;137627;1273;22233;-84
2023/04/13 18:51:22;;;;;;;;;;;;;;;;;;137565;1273;22215;-84
2023/04/13 18:54:23;;;;;;;;;;;;;;;;;;137568;1273;22189;-85
2023/04/13 18:57:25;;;;;;;;;;;;;;;;;;137618;1273;22613;-83
2023/04/13 19:00:26;;;;;;;;;;;;;;;;;;137680;1273;22197;-84
2023/04/13 19:03:27;;;;;;;;;;;;;;;;;;137604;1273;22277;-84
2023/04/13 19:06:29;;;;;;;;;;;;;;;;;;137617;1273;23082;-84
2023/04/13 19:09:30;;;;;;;;;;;;;;;;;;137475;1273;195546;-83
2023/04/13 19:12:32;;;;;;;;;;;;;;;;;;137610;1273;22258;-84
2023/04/13 19:15:33;;;;;;;;;;;;;;;;;;137613;1273;22216;-83
2023/04/13 19:18:34;;;;;;;;;;;;;;;;;;137614;1273;22167;-84
2023/04/13 19:21:35;;;;;;;;;;;;;;;;;;137674;1273;22201;-84
2023/04/13 19:24:36;;;;;;;;;;;;;;;;;;137589;1273;22314;-83
2023/04/13 19:27:37;;;;;;;;;;;;;;;;;;137559;1273;22686;-82
2023/04/13 19:30:38;;;;;;;;;;;;;;;;;;137585;1273;22267;-83
2023/04/13 19:33:39;;;;;;;;;;;;;;;;;;137579;1273;22643;-83
2023/04/13 19:36:41;;;;;;;;;;;;;;;;;;137553;1263;23337;-83
2023/04/13 19:39:42;;;;;;;;;;;;;;;;;;137585;1273;22605;-82
2023/04/13 19:42:43;;;;;;;;;;;;;;;;;;137593;1266;22220;-83
2023/04/13 19:45:44;;;;;;;;;;;;;;;;;;137676;1273;22262;-83
2023/04/13 19:48:47;;;;;;;;;;;;;;;;;;137663;1273;22307;-84
2023/04/13 19:51:48;;;;;;;;;;;;;;;;;;137673;1273;22301;-84
2023/04/13 19:54:49;;;;;;;;;;;;;;;;;;137648;1273;22165;-84
2023/04/13 19:57:53;;;;;;;;;;;;;;;;;;137645;1273;22329;-84
2023/04/13 20:00:56;;;;;;;;;;;;;;;;;;137623;1273;22240;-83
2023/04/13 20:03:57;;;;;;;;;;;;;;;;;;137622;1273;22230;-83
2023/04/13 20:06:58;;;;;;;;;;;;;;;;;;137588;1273;22834;-82
2023/04/13 20:09:59;;;;;;;;;;;;;;;;;;137568;1273;22487;-83
2023/04/13 20:13:00;;;;;;;;;;;;;;;;;;137600;1266;23010;-83
2023/04/13 20:16:01;;;;;;;;;;;;;;;;;;137523;1273;22160;-83
2023/04/13 20:19:02;;;;;;;;;;;;;;;;;;137607;1273;22252;-84